RJNY(METAR)
08/25 22:00
METAR RJNY 251300Z VRB02KT 9999 FEW025 BKN/// 26/22 Q1010 RMK 1CU025
A2983=
戻る
トップページへ戻る
IMOC Co,.Ltd.